sensor_id;sensor_type;location;lat;lon;timestamp;P1;durP1;ratioP1;P2;durP2;ratioP2
26906;SDS011;14472;56.880;16.658;2022-07-23T00:00:17;5.05;;;2.45;;
26906;SDS011;14472;56.880;16.658;2022-07-23T00:02:44;6.00;;;2.53;;
26906;SDS011;14472;56.880;16.658;2022-07-23T00:05:10;6.35;;;2.15;;
26906;SDS011;14472;56.880;16.658;2022-07-23T00:07:36;4.32;;;2.05;;
26906;SDS011;14472;56.880;16.658;2022-07-23T00:10:03;10.45;;;2.40;;
26906;SDS011;14472;56.880;16.658;2022-07-23T00:12:29;5.93;;;2.20;;
26906;SDS011;14472;56.880;16.658;2022-07-23T00:14:54;8.02;;;2.45;;
26906;SDS011;14472;56.880;16.658;2022-07-23T00:17:20;5.93;;;2.00;;
26906;SDS011;14472;56.880;16.658;2022-07-23T00:19:46;7.30;;;2.35;;
26906;SDS011;14472;56.880;16.658;2022-07-23T00:22:12;6.38;;;2.13;;
26906;SDS011;14472;56.880;16.658;2022-07-23T00:24:37;7.53;;;2.42;;
26906;SDS011;14472;56.880;16.658;2022-07-23T00:27:03;6.90;;;2.25;;
26906;SDS011;14472;56.880;16.658;2022-07-23T00:29:29;7.13;;;2.15;;
26906;SDS011;14472;56.880;16.658;2022-07-23T00:31:54;9.80;;;2.70;;
26906;SDS011;14472;56.880;16.658;2022-07-23T00:34:20;8.70;;;2.42;;
26906;SDS011;14472;56.880;16.658;2022-07-23T00:36:46;7.40;;;2.08;;
26906;SDS011;14472;56.880;16.658;2022-07-23T00:39:12;6.00;;;2.08;;
26906;SDS011;14472;56.880;16.658;2022-07-23T00:41:37;6.93;;;2.28;;
26906;SDS011;14472;56.880;16.658;2022-07-23T00:44:23;7.32;;;2.17;;
26906;SDS011;14472;56.880;16.658;2022-07-23T00:46:52;8.32;;;2.17;;
26906;SDS011;14472;56.880;16.658;2022-07-23T00:49:20;8.05;;;2.22;;
26906;SDS011;14472;56.880;16.658;2022-07-23T00:51:47;5.97;;;2.40;;
26906;SDS011;14472;56.880;16.658;2022-07-23T00:54:14;5.65;;;2.45;;
26906;SDS011;14472;56.880;16.658;2022-07-23T00:56:42;7.10;;;2.42;;
26906;SDS011;14472;56.880;16.658;2022-07-23T00:59:09;7.47;;;2.40;;
26906;SDS011;14472;56.880;16.658;2022-07-23T01:01:35;7.82;;;2.38;;
26906;SDS011;14472;56.880;16.658;2022-07-23T01:04:01;8.77;;;2.60;;
26906;SDS011;14472;56.880;16.658;2022-07-23T01:06:27;5.97;;;2.03;;
26906;SDS011;14472;56.880;16.658;2022-07-23T01:08:53;12.55;;;2.75;;
26906;SDS011;14472;56.880;16.658;2022-07-23T01:11:20;6.93;;;2.10;;
26906;SDS011;14472;56.880;16.658;2022-07-23T01:13:48;7.53;;;2.63;;
26906;SDS011;14472;56.880;16.658;2022-07-23T01:16:14;6.72;;;2.50;;
26906;SDS011;14472;56.880;16.658;2022-07-23T01:18:40;7.90;;;2.20;;
26906;SDS011;14472;56.880;16.658;2022-07-23T01:21:05;7.95;;;2.30;;
26906;SDS011;14472;56.880;16.658;2022-07-23T01:23:31;8.93;;;3.17;;
26906;SDS011;14472;56.880;16.658;2022-07-23T01:25:57;6.90;;;2.22;;
26906;SDS011;14472;56.880;16.658;2022-07-23T01:28:23;7.82;;;2.40;;
26906;SDS011;14472;56.880;16.658;2022-07-23T01:30:49;7.10;;;2.13;;
26906;SDS011;14472;56.880;16.658;2022-07-23T01:33:15;9.50;;;2.75;;
26906;SDS011;14472;56.880;16.658;2022-07-23T01:35:40;11.75;;;2.70;;
26906;SDS011;14472;56.880;16.658;2022-07-23T01:38:06;7.35;;;2.38;;
26906;SDS011;14472;56.880;16.658;2022-07-23T01:40:32;8.48;;;2.25;;
26906;SDS011;14472;56.880;16.658;2022-07-23T01:42:58;9.60;;;2.53;;
26906;SDS011;14472;56.880;16.658;2022-07-23T01:45:24;10.25;;;2.85;;
26906;SDS011;14472;56.880;16.658;2022-07-23T01:47:50;7.15;;;2.38;;
26906;SDS011;14472;56.880;16.658;2022-07-23T01:50:16;9.30;;;2.20;;
26906;SDS011;14472;56.880;16.658;2022-07-23T01:52:42;5.60;;;2.17;;
26906;SDS011;14472;56.880;16.658;2022-07-23T01:55:07;10.63;;;2.22;;
26906;SDS011;14472;56.880;16.658;2022-07-23T01:57:34;7.90;;;2.53;;
26906;SDS011;14472;56.880;16.658;2022-07-23T01:59:59;8.43;;;2.50;;
26906;SDS011;14472;56.880;16.658;2022-07-23T02:02:25;9.68;;;2.40;;
26906;SDS011;14472;56.880;16.658;2022-07-23T02:04:51;8.48;;;2.33;;
26906;SDS011;14472;56.880;16.658;2022-07-23T02:07:17;8.45;;;2.40;;
26906;SDS011;14472;56.880;16.658;2022-07-23T02:09:42;8.80;;;2.33;;
26906;SDS011;14472;56.880;16.658;2022-07-23T02:12:08;9.55;;;2.25;;
26906;SDS011;14472;56.880;16.658;2022-07-23T02:14:34;8.43;;;2.28;;
26906;SDS011;14472;56.880;16.658;2022-07-23T02:17:00;12.43;;;2.60;;
26906;SDS011;14472;56.880;16.658;2022-07-23T02:19:25;7.32;;;2.53;;
26906;SDS011;14472;56.880;16.658;2022-07-23T02:21:51;10.60;;;2.45;;
26906;SDS011;14472;56.880;16.658;2022-07-23T02:24:19;7.03;;;2.42;;
26906;SDS011;14472;56.880;16.658;2022-07-23T02:26:45;7.60;;;2.60;;
26906;SDS011;14472;56.880;16.658;2022-07-23T02:29:11;7.20;;;2.25;;
26906;SDS011;14472;56.880;16.658;2022-07-23T02:31:37;9.35;;;2.38;;
26906;SDS011;14472;56.880;16.658;2022-07-23T02:34:03;8.18;;;2.60;;
26906;SDS011;14472;56.880;16.658;2022-07-23T02:36:29;9.35;;;2.67;;
26906;SDS011;14472;56.880;16.658;2022-07-23T02:38:55;6.72;;;2.25;;
26906;SDS011;14472;56.880;16.658;2022-07-23T02:41:21;7.55;;;2.38;;
26906;SDS011;14472;56.880;16.658;2022-07-23T02:43:47;7.93;;;2.53;;
26906;SDS011;14472;56.880;16.658;2022-07-23T02:46:13;8.93;;;2.67;;
26906;SDS011;14472;56.880;16.658;2022-07-23T02:48:39;8.75;;;2.95;;
26906;SDS011;14472;56.880;16.658;2022-07-23T02:51:04;8.35;;;2.30;;
26906;SDS011;14472;56.880;16.658;2022-07-23T02:53:30;7.80;;;2.47;;
26906;SDS011;14472;56.880;16.658;2022-07-23T02:55:56;7.13;;;2.65;;
26906;SDS011;14472;56.880;16.658;2022-07-23T02:58:22;8.38;;;2.35;;
26906;SDS011;14472;56.880;16.658;2022-07-23T03:00:47;8.60;;;2.70;;
26906;SDS011;14472;56.880;16.658;2022-07-23T03:03:13;9.32;;;2.58;;
26906;SDS011;14472;56.880;16.658;2022-07-23T03:05:39;7.75;;;2.88;;
26906;SDS011;14472;56.880;16.658;2022-07-23T03:08:04;5.38;;;2.65;;
26906;SDS011;14472;56.880;16.658;2022-07-23T03:10:30;8.02;;;2.92;;
26906;SDS011;14472;56.880;16.658;2022-07-23T03:12:56;7.45;;;2.45;;
26906;SDS011;14472;56.880;16.658;2022-07-23T03:15:22;6.40;;;2.30;;
26906;SDS011;14472;56.880;16.658;2022-07-23T03:17:47;6.72;;;2.35;;
26906;SDS011;14472;56.880;16.658;2022-07-23T03:20:13;7.80;;;2.50;;
26906;SDS011;14472;56.880;16.658;2022-07-23T03:22:39;7.28;;;2.60;;
26906;SDS011;14472;56.880;16.658;2022-07-23T03:25:05;11.60;;;3.10;;
26906;SDS011;14472;56.880;16.658;2022-07-23T03:27:31;5.70;;;2.10;;
26906;SDS011;14472;56.880;16.658;2022-07-23T03:29:57;8.63;;;2.85;;
26906;SDS011;14472;56.880;16.658;2022-07-23T03:32:24;6.68;;;2.47;;
26906;SDS011;14472;56.880;16.658;2022-07-23T03:34:50;5.55;;;2.25;;
26906;SDS011;14472;56.880;16.658;2022-07-23T03:37:16;9.52;;;2.78;;
26906;SDS011;14472;56.880;16.658;2022-07-23T03:39:42;6.68;;;2.30;;
26906;SDS011;14472;56.880;16.658;2022-07-23T03:42:08;5.93;;;2.75;;
26906;SDS011;14472;56.880;16.658;2022-07-23T03:44:34;10.05;;;2.42;;
26906;SDS011;14472;56.880;16.658;2022-07-23T03:47:02;5.95;;;2.30;;
26906;SDS011;14472;56.880;16.658;2022-07-23T03:49:28;7.00;;;2.42;;
26906;SDS011;14472;56.880;16.658;2022-07-23T03:51:54;7.47;;;2.63;;
26906;SDS011;14472;56.880;16.658;2022-07-23T03:54:20;6.70;;;2.70;;
26906;SDS011;14472;56.880;16.658;2022-07-23T03:56:46;8.73;;;2.75;;
26906;SDS011;14472;56.880;16.658;2022-07-23T03:59:11;7.13;;;2.35;;
26906;SDS011;14472;56.880;16.658;2022-07-23T04:01:37;5.50;;;2.92;;
26906;SDS011;14472;56.880;16.658;2022-07-23T04:04:03;6.75;;;2.50;;
26906;SDS011;14472;56.880;16.658;2022-07-23T04:06:29;6.57;;;2.63;;
26906;SDS011;14472;56.880;16.658;2022-07-23T04:08:55;4.93;;;2.47;;
26906;SDS011;14472;56.880;16.658;2022-07-23T04:11:21;5.25;;;2.10;;
26906;SDS011;14472;56.880;16.658;2022-07-23T04:13:46;10.70;;;3.35;;
26906;SDS011;14472;56.880;16.658;2022-07-23T04:16:12;5.78;;;2.50;;
26906;SDS011;14472;56.880;16.658;2022-07-23T04:18:38;5.22;;;2.30;;
26906;SDS011;14472;56.880;16.658;2022-07-23T04:21:04;7.38;;;2.50;;
26906;SDS011;14472;56.880;16.658;2022-07-23T04:23:29;6.00;;;2.20;;
26906;SDS011;14472;56.880;16.658;2022-07-23T04:25:55;6.43;;;2.35;;
26906;SDS011;14472;56.880;16.658;2022-07-23T04:28:21;5.13;;;2.20;;
26906;SDS011;14472;56.880;16.658;2022-07-23T04:30:47;6.22;;;2.38;;
26906;SDS011;14472;56.880;16.658;2022-07-23T04:33:12;6.28;;;2.40;;
26906;SDS011;14472;56.880;16.658;2022-07-23T04:35:38;6.38;;;2.80;;
26906;SDS011;14472;56.880;16.658;2022-07-23T04:38:04;4.53;;;2.05;;
26906;SDS011;14472;56.880;16.658;2022-07-23T04:40:30;5.93;;;2.20;;
26906;SDS011;14472;56.880;16.658;2022-07-23T04:42:56;6.07;;;2.70;;
26906;SDS011;14472;56.880;16.658;2022-07-23T04:45:21;6.18;;;2.47;;
26906;SDS011;14472;56.880;16.658;2022-07-23T04:47:48;5.53;;;2.42;;
26906;SDS011;14472;56.880;16.658;2022-07-23T04:50:14;6.38;;;2.53;;
26906;SDS011;14472;56.880;16.658;2022-07-23T04:52:44;5.07;;;2.22;;
26906;SDS011;14472;56.880;16.658;2022-07-23T04:55:09;5.15;;;2.45;;
26906;SDS011;14472;56.880;16.658;2022-07-23T04:57:35;6.38;;;2.45;;
26906;SDS011;14472;56.880;16.658;2022-07-23T05:00:02;6.18;;;2.40;;
26906;SDS011;14472;56.880;16.658;2022-07-23T05:02:28;8.00;;;2.78;;
26906;SDS011;14472;56.880;16.658;2022-07-23T05:04:54;8.05;;;3.08;;
26906;SDS011;14472;56.880;16.658;2022-07-23T05:07:19;5.55;;;2.42;;
26906;SDS011;14472;56.880;16.658;2022-07-23T05:09:45;4.90;;;2.25;;
26906;SDS011;14472;56.880;16.658;2022-07-23T05:12:11;5.40;;;2.38;;
26906;SDS011;14472;56.880;16.658;2022-07-23T05:14:37;6.13;;;2.47;;
26906;SDS011;14472;56.880;16.658;2022-07-23T05:17:02;9.10;;;2.58;;
26906;SDS011;14472;56.880;16.658;2022-07-23T05:19:28;6.28;;;2.30;;
26906;SDS011;14472;56.880;16.658;2022-07-23T05:21:54;11.50;;;3.10;;
26906;SDS011;14472;56.880;16.658;2022-07-23T05:24:20;9.05;;;2.60;;
26906;SDS011;14472;56.880;16.658;2022-07-23T05:26:45;7.63;;;2.65;;
26906;SDS011;14472;56.880;16.658;2022-07-23T05:29:11;8.32;;;3.08;;
26906;SDS011;14472;56.880;16.658;2022-07-23T05:31:37;6.53;;;2.90;;
26906;SDS011;14472;56.880;16.658;2022-07-23T05:34:02;7.03;;;2.83;;
26906;SDS011;14472;56.880;16.658;2022-07-23T05:36:30;7.97;;;2.40;;
26906;SDS011;14472;56.880;16.658;2022-07-23T05:38:57;7.38;;;2.47;;
26906;SDS011;14472;56.880;16.658;2022-07-23T05:41:23;7.88;;;2.85;;
26906;SDS011;14472;56.880;16.658;2022-07-23T05:43:49;6.40;;;2.65;;
26906;SDS011;14472;56.880;16.658;2022-07-23T05:46:14;5.32;;;2.33;;
26906;SDS011;14472;56.880;16.658;2022-07-23T05:48:40;4.43;;;2.13;;
26906;SDS011;14472;56.880;16.658;2022-07-23T05:51:07;6.70;;;2.63;;
26906;SDS011;14472;56.880;16.658;2022-07-23T05:53:33;6.22;;;2.45;;
26906;SDS011;14472;56.880;16.658;2022-07-23T05:56:00;5.28;;;2.28;;
26906;SDS011;14472;56.880;16.658;2022-07-23T05:58:26;7.13;;;2.50;;
26906;SDS011;14472;56.880;16.658;2022-07-23T06:00:52;5.00;;;2.25;;
26906;SDS011;14472;56.880;16.658;2022-07-23T06:03:18;7.32;;;2.78;;
26906;SDS011;14472;56.880;16.658;2022-07-23T06:05:44;5.93;;;2.20;;
26906;SDS011;14472;56.880;16.658;2022-07-23T06:08:10;4.85;;;2.53;;
26906;SDS011;14472;56.880;16.658;2022-07-23T06:10:36;4.78;;;2.40;;
26906;SDS011;14472;56.880;16.658;2022-07-23T06:13:02;8.05;;;3.20;;
26906;SDS011;14472;56.880;16.658;2022-07-23T06:15:28;5.65;;;2.60;;
26906;SDS011;14472;56.880;16.658;2022-07-23T06:17:55;7.38;;;2.40;;
26906;SDS011;14472;56.880;16.658;2022-07-23T06:20:21;8.93;;;2.80;;
26906;SDS011;14472;56.880;16.658;2022-07-23T06:22:46;7.20;;;2.63;;
26906;SDS011;14472;56.880;16.658;2022-07-23T06:25:12;7.10;;;2.50;;
26906;SDS011;14472;56.880;16.658;2022-07-23T06:27:38;5.43;;;2.70;;
26906;SDS011;14472;56.880;16.658;2022-07-23T06:30:04;8.18;;;2.38;;
26906;SDS011;14472;56.880;16.658;2022-07-23T06:32:31;5.95;;;2.83;;
26906;SDS011;14472;56.880;16.658;2022-07-23T06:34:56;5.38;;;2.47;;
26906;SDS011;14472;56.880;16.658;2022-07-23T06:37:22;4.63;;;1.98;;
26906;SDS011;14472;56.880;16.658;2022-07-23T06:39:48;5.90;;;2.35;;
26906;SDS011;14472;56.880;16.658;2022-07-23T06:42:14;4.35;;;2.33;;
26906;SDS011;14472;56.880;16.658;2022-07-23T06:44:40;8.82;;;2.53;;
26906;SDS011;14472;56.880;16.658;2022-07-23T06:47:05;3.85;;;2.28;;
26906;SDS011;14472;56.880;16.658;2022-07-23T06:49:31;7.43;;;2.90;;
26906;SDS011;14472;56.880;16.658;2022-07-23T06:51:57;4.97;;;2.28;;
26906;SDS011;14472;56.880;16.658;2022-07-23T06:54:23;3.83;;;2.35;;
26906;SDS011;14472;56.880;16.658;2022-07-23T06:56:48;5.15;;;2.30;;
26906;SDS011;14472;56.880;16.658;2022-07-23T06:59:14;4.90;;;2.30;;
26906;SDS011;14472;56.880;16.658;2022-07-23T07:01:40;6.15;;;2.08;;
26906;SDS011;14472;56.880;16.658;2022-07-23T07:04:05;6.60;;;2.38;;
26906;SDS011;14472;56.880;16.658;2022-07-23T07:06:31;5.35;;;2.22;;
26906;SDS011;14472;56.880;16.658;2022-07-23T07:08:57;5.38;;;2.28;;
26906;SDS011;14472;56.880;16.658;2022-07-23T07:11:22;5.40;;;2.20;;
26906;SDS011;14472;56.880;16.658;2022-07-23T07:13:50;4.35;;;2.10;;
26906;SDS011;14472;56.880;16.658;2022-07-23T07:16:16;7.00;;;2.38;;
26906;SDS011;14472;56.880;16.658;2022-07-23T07:18:42;4.25;;;2.25;;
26906;SDS011;14472;56.880;16.658;2022-07-23T07:21:07;6.65;;;2.33;;
26906;SDS011;14472;56.880;16.658;2022-07-23T07:23:33;5.55;;;2.72;;
26906;SDS011;14472;56.880;16.658;2022-07-23T07:25:59;6.88;;;2.35;;
26906;SDS011;14472;56.880;16.658;2022-07-23T07:28:25;4.97;;;2.20;;
26906;SDS011;14472;56.880;16.658;2022-07-23T07:30:51;4.50;;;2.10;;
26906;SDS011;14472;56.880;16.658;2022-07-23T07:33:16;4.70;;;2.00;;
26906;SDS011;14472;56.880;16.658;2022-07-23T07:35:42;6.15;;;2.30;;
26906;SDS011;14472;56.880;16.658;2022-07-23T07:38:08;6.28;;;2.40;;
26906;SDS011;14472;56.880;16.658;2022-07-23T07:40:34;7.93;;;2.40;;
26906;SDS011;14472;56.880;16.658;2022-07-23T07:42:59;4.22;;;2.17;;
26906;SDS011;14472;56.880;16.658;2022-07-23T07:45:26;5.13;;;2.33;;
26906;SDS011;14472;56.880;16.658;2022-07-23T07:47:52;4.60;;;1.90;;
26906;SDS011;14472;56.880;16.658;2022-07-23T07:50:19;3.95;;;2.08;;
26906;SDS011;14472;56.880;16.658;2022-07-23T07:52:45;4.43;;;2.05;;
26906;SDS011;14472;56.880;16.658;2022-07-23T07:55:11;7.00;;;2.20;;
26906;SDS011;14472;56.880;16.658;2022-07-23T07:57:37;3.60;;;1.95;;
26906;SDS011;14472;56.880;16.658;2022-07-23T08:00:04;6.05;;;2.30;;
26906;SDS011;14472;56.880;16.658;2022-07-23T08:02:41;6.80;;;2.38;;
26906;SDS011;14472;56.880;16.658;2022-07-23T08:05:12;4.88;;;2.13;;
26906;SDS011;14472;56.880;16.658;2022-07-23T08:07:39;6.72;;;2.22;;
26906;SDS011;14472;56.880;16.658;2022-07-23T08:10:06;5.45;;;2.45;;
26906;SDS011;14472;56.880;16.658;2022-07-23T08:12:40;3.80;;;2.13;;
26906;SDS011;14472;56.880;16.658;2022-07-23T08:15:07;6.93;;;2.50;;
26906;SDS011;14472;56.880;16.658;2022-07-23T08:17:34;7.65;;;2.50;;
26906;SDS011;14472;56.880;16.658;2022-07-23T08:20:00;5.63;;;2.47;;
26906;SDS011;14472;56.880;16.658;2022-07-23T08:22:25;8.45;;;2.30;;
26906;SDS011;14472;56.880;16.658;2022-07-23T08:25:07;4.10;;;1.90;;
26906;SDS011;14472;56.880;16.658;2022-07-23T08:27:33;4.47;;;2.22;;
26906;SDS011;14472;56.880;16.658;2022-07-23T08:29:58;6.13;;;2.33;;
26906;SDS011;14472;56.880;16.658;2022-07-23T08:32:24;6.28;;;2.20;;
26906;SDS011;14472;56.880;16.658;2022-07-23T08:34:50;6.65;;;2.28;;
26906;SDS011;14472;56.880;16.658;2022-07-23T08:37:15;6.47;;;2.38;;
26906;SDS011;14472;56.880;16.658;2022-07-23T08:39:41;5.15;;;2.17;;
26906;SDS011;14472;56.880;16.658;2022-07-23T08:42:07;5.97;;;2.30;;
26906;SDS011;14472;56.880;16.658;2022-07-23T08:44:33;6.30;;;2.30;;
26906;SDS011;14472;56.880;16.658;2022-07-23T08:47:00;5.18;;;2.40;;
26906;SDS011;14472;56.880;16.658;2022-07-23T08:49:27;6.32;;;2.40;;
26906;SDS011;14472;56.880;16.658;2022-07-23T08:51:54;6.40;;;2.20;;
26906;SDS011;14472;56.880;16.658;2022-07-23T08:54:21;7.72;;;2.83;;
26906;SDS011;14472;56.880;16.658;2022-07-23T08:56:48;5.53;;;2.40;;
26906;SDS011;14472;56.880;16.658;2022-07-23T08:59:13;6.60;;;2.55;;
26906;SDS011;14472;56.880;16.658;2022-07-23T09:01:39;7.72;;;2.47;;
26906;SDS011;14472;56.880;16.658;2022-07-23T09:04:05;10.90;;;3.53;;
26906;SDS011;14472;56.880;16.658;2022-07-23T09:06:31;6.05;;;3.00;;
26906;SDS011;14472;56.880;16.658;2022-07-23T09:08:57;4.40;;;3.10;;
26906;SDS011;14472;56.880;16.658;2022-07-23T09:11:22;3.95;;;2.03;;
26906;SDS011;14472;56.880;16.658;2022-07-23T09:13:49;6.45;;;2.25;;
26906;SDS011;14472;56.880;16.658;2022-07-23T09:16:30;5.63;;;2.50;;
26906;SDS011;14472;56.880;16.658;2022-07-23T09:18:58;9.80;;;4.30;;
26906;SDS011;14472;56.880;16.658;2022-07-23T09:26:23;8.32;;;3.67;;
26906;SDS011;14472;56.880;16.658;2022-07-23T09:28:56;5.95;;;2.58;;
26906;SDS011;14472;56.880;16.658;2022-07-23T09:31:41;6.32;;;2.35;;
26906;SDS011;14472;56.880;16.658;2022-07-23T09:34:10;4.95;;;2.20;;
26906;SDS011;14472;56.880;16.658;2022-07-23T09:36:38;6.47;;;2.70;;
26906;SDS011;14472;56.880;16.658;2022-07-23T09:39:04;6.40;;;2.08;;
26906;SDS011;14472;56.880;16.658;2022-07-23T09:41:35;6.28;;;2.58;;
26906;SDS011;14472;56.880;16.658;2022-07-23T09:44:15;5.63;;;2.47;;
26906;SDS011;14472;56.880;16.658;2022-07-23T09:46:43;4.82;;;2.38;;
26906;SDS011;14472;56.880;16.658;2022-07-23T09:49:14;5.45;;;2.20;;
26906;SDS011;14472;56.880;16.658;2022-07-23T09:51:55;4.13;;;2.03;;
26906;SDS011;14472;56.880;16.658;2022-07-23T09:56:52;5.00;;;2.65;;
26906;SDS011;14472;56.880;16.658;2022-07-23T09:59:18;8.10;;;1.92;;
26906;SDS011;14472;56.880;16.658;2022-07-23T10:01:54;7.15;;;2.40;;
26906;SDS011;14472;56.880;16.658;2022-07-23T10:04:22;5.50;;;2.22;;
26906;SDS011;14472;56.880;16.658;2022-07-23T10:06:53;4.78;;;2.42;;
26906;SDS011;14472;56.880;16.658;2022-07-23T10:09:25;5.22;;;2.33;;
26906;SDS011;14472;56.880;16.658;2022-07-23T10:11:54;5.05;;;2.17;;
26906;SDS011;14472;56.880;16.658;2022-07-23T10:14:25;4.80;;;2.55;;
26906;SDS011;14472;56.880;16.658;2022-07-23T10:16:52;5.80;;;2.40;;
26906;SDS011;14472;56.880;16.658;2022-07-23T10:19:18;5.35;;;2.15;;
26906;SDS011;14472;56.880;16.658;2022-07-23T10:24:18;3.88;;;2.10;;
26906;SDS011;14472;56.880;16.658;2022-07-23T10:38:13;4.68;;;2.08;;
26906;SDS011;14472;56.880;16.658;2022-07-23T10:41:00;6.38;;;2.00;;
26906;SDS011;14472;56.880;16.658;2022-07-23T10:43:27;5.00;;;2.45;;
26906;SDS011;14472;56.880;16.658;2022-07-23T10:45:53;5.80;;;2.30;;
26906;SDS011;14472;56.880;16.658;2022-07-23T10:48:24;4.68;;;2.40;;
26906;SDS011;14472;56.880;16.658;2022-07-23T10:51:10;5.65;;;2.33;;
26906;SDS011;14472;56.880;16.658;2022-07-23T10:59:16;3.53;;;2.05;;
26906;SDS011;14472;56.880;16.658;2022-07-23T11:01:43;3.58;;;2.00;;
26906;SDS011;14472;56.880;16.658;2022-07-23T11:04:09;5.28;;;2.08;;
26906;SDS011;14472;56.880;16.658;2022-07-23T11:17:58;5.57;;;2.35;;
26906;SDS011;14472;56.880;16.658;2022-07-23T11:20:25;5.07;;;2.30;;
26906;SDS011;14472;56.880;16.658;2022-07-23T11:22:51;4.28;;;2.30;;
26906;SDS011;14472;56.880;16.658;2022-07-23T11:27:55;9.20;;;2.95;;
26906;SDS011;14472;56.880;16.658;2022-07-23T11:35:33;3.63;;;2.00;;
26906;SDS011;14472;56.880;16.658;2022-07-23T11:40:40;3.72;;;2.28;;
26906;SDS011;14472;56.880;16.658;2022-07-23T11:43:09;6.38;;;2.50;;
26906;SDS011;14472;56.880;16.658;2022-07-23T11:45:37;4.15;;;2.22;;
26906;SDS011;14472;56.880;16.658;2022-07-23T11:48:05;4.85;;;2.33;;
26906;SDS011;14472;56.880;16.658;2022-07-23T11:50:33;4.18;;;1.90;;
26906;SDS011;14472;56.880;16.658;2022-07-23T11:53:00;4.38;;;2.15;;
26906;SDS011;14472;56.880;16.658;2022-07-23T11:55:26;3.55;;;2.20;;
26906;SDS011;14472;56.880;16.658;2022-07-23T11:57:53;4.22;;;1.95;;
26906;SDS011;14472;56.880;16.658;2022-07-23T12:00:23;4.55;;;1.70;;
26906;SDS011;14472;56.880;16.658;2022-07-23T12:02:51;3.03;;;1.90;;
26906;SDS011;14472;56.880;16.658;2022-07-23T12:05:20;3.47;;;1.88;;
26906;SDS011;14472;56.880;16.658;2022-07-23T12:07:47;3.88;;;1.98;;
26906;SDS011;14472;56.880;16.658;2022-07-23T12:10:22;2.78;;;1.75;;
26906;SDS011;14472;56.880;16.658;2022-07-23T12:12:51;3.47;;;2.15;;
26906;SDS011;14472;56.880;16.658;2022-07-23T12:15:27;2.53;;;1.77;;
26906;SDS011;14472;56.880;16.658;2022-07-23T12:17:57;2.75;;;1.60;;
26906;SDS011;14472;56.880;16.658;2022-07-23T12:20:25;3.17;;;1.90;;
26906;SDS011;14472;56.880;16.658;2022-07-23T12:22:55;4.07;;;1.73;;
26906;SDS011;14472;56.880;16.658;2022-07-23T12:25:23;2.25;;;1.80;;
26906;SDS011;14472;56.880;16.658;2022-07-23T12:28:07;3.10;;;1.80;;
26906;SDS011;14472;56.880;16.658;2022-07-23T12:30:45;3.90;;;1.80;;
26906;SDS011;14472;56.880;16.658;2022-07-23T12:35:52;3.15;;;2.22;;
26906;SDS011;14472;56.880;16.658;2022-07-23T12:38:20;3.38;;;2.00;;
26906;SDS011;14472;56.880;16.658;2022-07-23T12:40:58;4.20;;;1.70;;
26906;SDS011;14472;56.880;16.658;2022-07-23T12:43:33;5.55;;;1.80;;
26906;SDS011;14472;56.880;16.658;2022-07-23T12:46:05;3.65;;;1.70;;
26906;SDS011;14472;56.880;16.658;2022-07-23T12:58:40;4.78;;;1.90;;
26906;SDS011;14472;56.880;16.658;2022-07-23T13:03:56;2.13;;;1.70;;
26906;SDS011;14472;56.880;16.658;2022-07-23T13:06:36;1.98;;;1.67;;
26906;SDS011;14472;56.880;16.658;2022-07-23T13:09:20;3.00;;;1.67;;
26906;SDS011;14472;56.880;16.658;2022-07-23T13:11:50;3.83;;;1.80;;
26906;SDS011;14472;56.880;16.658;2022-07-23T13:14:18;3.10;;;1.83;;
26906;SDS011;14472;56.880;16.658;2022-07-23T13:16:44;2.30;;;1.83;;
26906;SDS011;14472;56.880;16.658;2022-07-23T13:19:11;2.20;;;1.85;;
26906;SDS011;14472;56.880;16.658;2022-07-23T13:21:37;3.20;;;2.10;;
26906;SDS011;14472;56.880;16.658;2022-07-23T13:24:03;3.10;;;1.88;;
26906;SDS011;14472;56.880;16.658;2022-07-23T13:26:29;3.47;;;2.00;;
26906;SDS011;14472;56.880;16.658;2022-07-23T13:28:54;2.85;;;2.13;;
26906;SDS011;14472;56.880;16.658;2022-07-23T13:31:20;2.55;;;1.90;;
26906;SDS011;14472;56.880;16.658;2022-07-23T13:33:46;4.18;;;2.28;;
26906;SDS011;14472;56.880;16.658;2022-07-23T13:36:12;4.70;;;2.60;;
26906;SDS011;14472;56.880;16.658;2022-07-23T13:38:38;3.85;;;2.30;;
26906;SDS011;14472;56.880;16.658;2022-07-23T13:41:04;3.08;;;2.33;;
26906;SDS011;14472;56.880;16.658;2022-07-23T13:43:30;3.97;;;2.10;;
26906;SDS011;14472;56.880;16.658;2022-07-23T13:45:56;3.72;;;2.00;;
26906;SDS011;14472;56.880;16.658;2022-07-23T13:48:22;3.40;;;2.13;;
26906;SDS011;14472;56.880;16.658;2022-07-23T13:50:49;4.05;;;2.10;;
26906;SDS011;14472;56.880;16.658;2022-07-23T13:53:19;3.88;;;2.20;;
26906;SDS011;14472;56.880;16.658;2022-07-23T13:55:46;5.60;;;2.97;;
26906;SDS011;14472;56.880;16.658;2022-07-23T13:58:13;4.03;;;2.28;;
26906;SDS011;14472;56.880;16.658;2022-07-23T14:00:41;2.60;;;2.00;;
26906;SDS011;14472;56.880;16.658;2022-07-23T14:03:10;2.33;;;1.90;;
26906;SDS011;14472;56.880;16.658;2022-07-23T14:05:36;3.58;;;2.13;;
26906;SDS011;14472;56.880;16.658;2022-07-23T14:08:02;2.20;;;2.00;;
26906;SDS011;14472;56.880;16.658;2022-07-23T14:10:28;3.22;;;2.03;;
26906;SDS011;14472;56.880;16.658;2022-07-23T14:12:54;2.22;;;2.08;;
26906;SDS011;14472;56.880;16.658;2022-07-23T14:15:21;3.30;;;2.33;;
26906;SDS011;14472;56.880;16.658;2022-07-23T14:17:48;2.75;;;2.17;;
26906;SDS011;14472;56.880;16.658;2022-07-23T14:20:14;2.80;;;2.10;;
26906;SDS011;14472;56.880;16.658;2022-07-23T14:22:41;1.88;;;1.77;;
26906;SDS011;14472;56.880;16.658;2022-07-23T14:25:07;2.90;;;2.20;;
26906;SDS011;14472;56.880;16.658;2022-07-23T14:27:34;3.45;;;2.40;;
26906;SDS011;14472;56.880;16.658;2022-07-23T14:30:00;4.22;;;2.45;;
26906;SDS011;14472;56.880;16.658;2022-07-23T14:32:26;3.20;;;2.50;;
26906;SDS011;14472;56.880;16.658;2022-07-23T14:34:52;2.70;;;2.20;;
26906;SDS011;14472;56.880;16.658;2022-07-23T14:37:18;3.55;;;2.33;;
26906;SDS011;14472;56.880;16.658;2022-07-23T14:39:45;3.35;;;2.40;;
26906;SDS011;14472;56.880;16.658;2022-07-23T14:42:11;2.90;;;2.55;;
26906;SDS011;14472;56.880;16.658;2022-07-23T14:44:37;3.05;;;2.58;;
26906;SDS011;14472;56.880;16.658;2022-07-23T14:47:03;3.47;;;2.97;;
26906;SDS011;14472;56.880;16.658;2022-07-23T14:49:31;4.45;;;2.58;;
26906;SDS011;14472;56.880;16.658;2022-07-23T14:51:57;5.20;;;2.65;;
26906;SDS011;14472;56.880;16.658;2022-07-23T14:54:24;2.67;;;2.47;;
26906;SDS011;14472;56.880;16.658;2022-07-23T14:56:52;3.90;;;3.03;;
26906;SDS011;14472;56.880;16.658;2022-07-23T14:59:19;3.50;;;3.20;;
26906;SDS011;14472;56.880;16.658;2022-07-23T15:01:45;4.00;;;2.65;;
26906;SDS011;14472;56.880;16.658;2022-07-23T15:04:10;3.35;;;2.60;;
26906;SDS011;14472;56.880;16.658;2022-07-23T15:06:36;3.10;;;2.80;;
26906;SDS011;14472;56.880;16.658;2022-07-23T15:09:04;4.55;;;2.55;;
26906;SDS011;14472;56.880;16.658;2022-07-23T15:11:30;5.10;;;2.75;;
26906;SDS011;14472;56.880;16.658;2022-07-23T15:13:59;3.47;;;3.17;;
26906;SDS011;14472;56.880;16.658;2022-07-23T15:16:29;4.80;;;3.13;;
26906;SDS011;14472;56.880;16.658;2022-07-23T15:18:54;3.20;;;2.90;;
26906;SDS011;14472;56.880;16.658;2022-07-23T15:21:21;3.03;;;2.45;;
26906;SDS011;14472;56.880;16.658;2022-07-23T15:23:47;2.40;;;2.20;;
26906;SDS011;14472;56.880;16.658;2022-07-23T15:26:13;2.65;;;2.45;;
26906;SDS011;14472;56.880;16.658;2022-07-23T15:28:40;2.60;;;2.40;;
26906;SDS011;14472;56.880;16.658;2022-07-23T15:31:06;2.70;;;2.50;;
26906;SDS011;14472;56.880;16.658;2022-07-23T15:33:33;2.47;;;2.28;;
26906;SDS011;14472;56.880;16.658;2022-07-23T15:36:00;3.10;;;2.80;;